Terminal Aerodrome Forecast
Issued by NWS St Louis, MO

Home | Current Version | Previous Version | Text Only | Print | Product List | Glossary On
Versions: 1 2 3 4 5 6 7 8 9 10 11 12 13 14 15 16 17 18 19 20 21 22 23 24 25 26
000
FTUS43 KLSX 290200 AAA
TAFSTL
TAF AMD
KSTL 290253Z 2903/3006 16008KT P6SM BKN200
     FM291500 21010KT P6SM BKN035 BKN150
     FM292000 21010KT P6SM VCTS BKN035CB
     FM300300 21008KT P6SM BKN045=

USA.gov is the U.S. government's official web portal to all federal, state and local government web resources and services.